createdAt,value
2022-08-16T00:02:30.693Z,99.90
2022-08-16T00:05:00.083Z,99.90
2022-08-16T00:07:29.089Z,1.00
2022-08-16T00:09:57.900Z,1.00
2022-08-16T00:12:27.198Z,99.90
2022-08-16T00:14:56.873Z,99.90
2022-08-16T00:17:25.402Z,99.90
2022-08-16T00:19:55.161Z,99.90
2022-08-16T00:22:24.876Z,99.90
2022-08-16T00:24:53.481Z,99.90
2022-08-16T00:27:22.535Z,80.30
2022-08-16T00:30:08.691Z,96.00
2022-08-16T00:32:38.358Z,99.90
2022-08-16T00:35:13.301Z,70.70
2022-08-16T00:37:58.007Z,50.60
2022-08-16T00:40:50.726Z,93.60
2022-08-16T00:43:42.655Z,99.90
2022-08-16T00:46:35.402Z,99.90
2022-08-16T00:49:17.638Z,99.90
2022-08-16T00:51:46.594Z,99.90
2022-08-16T00:54:22.601Z,99.90
2022-08-16T00:56:57.494Z,98.80
2022-08-16T00:59:28.323Z,99.90
2022-08-16T01:01:56.375Z,99.90
2022-08-16T01:04:29.878Z,99.90
2022-08-16T01:07:01.635Z,70.60
2022-08-16T01:09:33.084Z,99.90
2022-08-16T01:12:01.979Z,99.90
2022-08-16T01:14:34.966Z,99.90
2022-08-16T01:17:03.763Z,99.90
2022-08-16T01:19:42.813Z,99.90
2022-08-16T01:22:55.886Z,99.90
2022-08-16T01:25:33.857Z,99.90
2022-08-16T01:28:04.667Z,99.90
2022-08-16T01:30:39.665Z,99.90
2022-08-16T01:33:14.980Z,99.90
2022-08-16T01:36:11.709Z,1.00
2022-08-16T01:38:49.217Z,99.90
2022-08-16T01:41:29.806Z,99.90
2022-08-16T01:44:01.070Z,99.90
2022-08-16T01:46:40.054Z,99.90
2022-08-16T01:49:10.177Z,99.90
2022-08-16T01:51:39.478Z,99.90
2022-08-16T01:54:07.377Z,99.90
2022-08-16T01:56:35.147Z,96.60
2022-08-16T01:59:04.552Z,99.90
2022-08-16T02:01:32.811Z,47.70
2022-08-16T02:04:10.590Z,99.90
2022-08-16T02:06:46.010Z,99.90
2022-08-16T02:09:14.892Z,99.90
2022-08-16T02:11:53.213Z,99.90
2022-08-16T02:14:26.654Z,23.40
2022-08-16T02:16:58.566Z,70.90
2022-08-16T02:19:58.486Z,99.90
2022-08-16T02:22:34.479Z,99.90
2022-08-16T02:25:05.364Z,99.60
2022-08-16T02:27:32.533Z,99.90
2022-08-16T02:30:05.339Z,99.90
2022-08-16T02:33:02.564Z,99.90
2022-08-16T02:35:23.113Z,99.90
2022-08-16T02:37:52.607Z,99.90
2022-08-16T02:40:22.760Z,1.00
2022-08-16T02:42:51.226Z,99.90
2022-08-16T02:45:21.280Z,61.00
2022-08-16T02:48:01.449Z,99.90
2022-08-16T02:50:53.707Z,99.90
2022-08-16T02:53:24.039Z,1.00
2022-08-16T02:55:51.516Z,99.90
2022-08-16T02:58:20.494Z,99.90
2022-08-16T03:00:53.272Z,99.90
2022-08-16T03:03:24.753Z,94.10
2022-08-16T03:05:53.252Z,1.00
2022-08-16T03:08:31.008Z,24.10
2022-08-16T03:11:16.597Z,99.90
2022-08-16T03:13:51.313Z,99.90
2022-08-16T03:16:37.793Z,99.90
2022-08-16T03:19:06.752Z,99.90
2022-08-16T03:21:38.073Z,99.90
2022-08-16T03:24:28.130Z,52.70
2022-08-16T03:26:57.835Z,1.00
2022-08-16T03:29:27.378Z,99.20
2022-08-16T03:31:59.451Z,1.00
2022-08-16T03:34:27.658Z,1.00
2022-08-16T03:36:55.000Z,1.00
2022-08-16T03:39:22.481Z,1.00
2022-08-16T03:41:51.311Z,1.00
2022-08-16T03:44:43.487Z,1.00
2022-08-16T03:47:11.936Z,1.00
2022-08-16T03:49:38.735Z,1.00
2022-08-16T03:52:07.136Z,1.00
2022-08-16T03:54:35.918Z,1.00
2022-08-16T03:57:04.951Z,1.00
2022-08-16T03:59:32.032Z,1.00
2022-08-16T04:02:00.952Z,1.00
2022-08-16T04:04:32.736Z,1.00
2022-08-16T04:07:02.849Z,1.00
2022-08-16T04:09:35.459Z,1.00
2022-08-16T04:12:10.821Z,1.00
2022-08-16T04:14:46.888Z,1.00
2022-08-16T04:17:16.144Z,1.00
2022-08-16T04:19:47.354Z,1.00
2022-08-16T04:22:19.610Z,1.00
2022-08-16T04:24:54.144Z,1.00
2022-08-16T04:27:24.604Z,1.00
2022-08-16T04:30:03.092Z,1.00
2022-08-16T04:32:30.751Z,1.00
2022-08-16T04:34:57.503Z,1.00
2022-08-16T04:37:24.324Z,1.00
2022-08-16T04:39:57.060Z,1.00
2022-08-16T04:42:26.136Z,1.00
2022-08-16T04:44:57.722Z,1.00
2022-08-16T04:47:31.454Z,1.00
2022-08-16T04:50:01.357Z,1.00
2022-08-16T04:52:33.819Z,1.00
2022-08-16T04:55:07.672Z,1.00
2022-08-16T04:57:35.017Z,1.00
2022-08-16T05:00:31.270Z,1.00
2022-08-16T05:02:54.837Z,1.00
2022-08-16T05:05:23.081Z,1.00
2022-08-16T05:07:59.578Z,1.00
2022-08-16T05:10:28.517Z,1.00
2022-08-16T05:12:57.999Z,1.00
2022-08-16T05:15:25.243Z,1.00
2022-08-16T05:17:58.705Z,1.00
2022-08-16T05:20:35.559Z,1.00
2022-08-16T05:23:13.668Z,1.00
2022-08-16T05:25:48.423Z,1.00
2022-08-16T05:28:16.857Z,1.00
2022-08-16T05:30:43.639Z,1.00
2022-08-16T05:33:16.351Z,1.00
2022-08-16T05:35:43.425Z,1.00
2022-08-16T05:38:30.969Z,1.00
2022-08-16T05:41:00.011Z,1.00
2022-08-16T05:43:28.145Z,1.00
2022-08-16T05:46:00.393Z,1.00
2022-08-16T05:48:27.332Z,1.00
2022-08-16T05:50:54.148Z,1.00
2022-08-16T05:53:24.151Z,1.00
2022-08-16T05:55:51.863Z,1.00
2022-08-16T05:58:31.800Z,1.00
2022-08-16T06:01:00.077Z,1.00
2022-08-16T06:11:06.336Z,1.00
2022-08-16T06:13:42.036Z,1.00
2022-08-16T06:16:09.473Z,1.00
2022-08-16T06:18:45.587Z,1.00
2022-08-16T06:21:13.385Z,1.00
2022-08-16T06:23:54.276Z,1.00
2022-08-16T06:26:22.454Z,1.00
2022-08-16T06:28:49.549Z,1.00
2022-08-16T06:31:19.371Z,1.00
2022-08-16T06:33:51.923Z,1.00
2022-08-16T06:36:20.976Z,1.00
2022-08-16T06:38:55.333Z,1.00
2022-08-16T06:41:24.271Z,1.00
2022-08-16T06:43:55.009Z,1.00
2022-08-16T06:46:35.019Z,1.00
2022-08-16T06:49:10.825Z,1.00
2022-08-16T06:51:46.571Z,1.00
2022-08-16T06:54:15.934Z,1.00
2022-08-16T06:56:43.438Z,1.00
2022-08-16T06:59:10.841Z,1.00
2022-08-16T07:01:46.187Z,1.00
2022-08-16T07:04:33.236Z,1.00
2022-08-16T07:07:05.989Z,1.00
2022-08-16T07:09:32.835Z,1.00
2022-08-16T07:12:03.818Z,1.00
2022-08-16T07:17:00.111Z,1.00
2022-08-16T07:19:33.692Z,1.00
2022-08-16T07:22:36.480Z,1.00
2022-08-16T07:25:05.312Z,1.00
2022-08-16T07:27:33.918Z,1.00
2022-08-16T07:30:45.248Z,1.00
2022-08-16T07:32:55.522Z,1.00
2022-08-16T07:35:24.967Z,1.00
2022-08-16T07:37:52.117Z,1.00
2022-08-16T07:40:19.077Z,1.00
2022-08-16T07:42:52.304Z,1.00
2022-08-16T07:45:19.848Z,1.00
2022-08-16T07:47:46.621Z,1.00
2022-08-16T07:50:55.906Z,1.00
2022-08-16T07:53:05.224Z,1.00
2022-08-16T07:55:45.735Z,1.00
2022-08-16T07:58:18.414Z,1.00
2022-08-16T08:01:01.720Z,1.00
2022-08-16T08:03:39.310Z,1.00
2022-08-16T08:06:10.489Z,1.00
2022-08-16T08:08:51.354Z,1.00
2022-08-16T08:11:23.491Z,1.00
2022-08-16T08:13:53.681Z,1.00
2022-08-16T08:16:21.791Z,1.00
2022-08-16T08:21:59.950Z,1.00
2022-08-16T08:24:17.650Z,1.00
2022-08-16T08:26:44.714Z,1.00
2022-08-16T08:29:23.186Z,1.00
2022-08-16T08:32:57.038Z,1.00
2022-08-16T08:34:51.801Z,1.00
2022-08-16T08:37:18.997Z,69.40
2022-08-16T08:39:53.567Z,1.00
2022-08-16T08:42:25.163Z,99.90
2022-08-16T08:44:53.816Z,1.00
2022-08-16T08:47:21.145Z,99.90
2022-08-16T08:49:55.804Z,1.00
2022-08-16T08:52:35.219Z,99.90
2022-08-16T08:55:10.399Z,37.00
2022-08-16T08:57:43.056Z,41.10
2022-08-16T09:00:13.631Z,42.60
2022-08-16T09:02:42.996Z,42.80
2022-08-16T09:05:16.207Z,40.40
2022-08-16T09:08:02.030Z,42.50
2022-08-16T09:10:32.462Z,42.40
2022-08-16T09:13:00.995Z,42.80
2022-08-16T09:15:33.223Z,43.50
2022-08-16T09:18:02.123Z,43.00
2022-08-16T09:20:59.471Z,42.50
2022-08-16T09:23:29.061Z,41.70
2022-08-16T09:25:55.842Z,42.30
2022-08-16T09:29:06.804Z,42.30
2022-08-16T09:31:10.987Z,42.00
2022-08-16T09:33:39.312Z,39.70
2022-08-16T09:36:12.096Z,41.70
2022-08-16T09:39:00.026Z,41.00
2022-08-16T09:41:28.115Z,41.30
2022-08-16T09:44:00.720Z,41.90
2022-08-16T09:46:48.955Z,41.20
2022-08-16T09:49:19.767Z,41.00
2022-08-16T09:51:48.382Z,41.40
2022-08-16T09:54:20.902Z,42.00
2022-08-16T09:56:53.408Z,41.20
2022-08-16T09:59:23.863Z,41.20
2022-08-16T10:01:53.467Z,41.30
2022-08-16T10:04:31.112Z,41.60
2022-08-16T10:07:15.456Z,42.00
2022-08-16T10:09:53.886Z,41.80
2022-08-16T10:12:43.655Z,41.90
2022-08-16T10:15:22.843Z,42.20
2022-08-16T10:18:01.174Z,41.90
2022-08-16T10:20:34.517Z,42.90
2022-08-16T10:23:17.309Z,42.70
2022-08-16T10:27:16.382Z,41.50
2022-08-16T10:28:40.107Z,43.00
2022-08-16T10:31:14.441Z,43.40
2022-08-16T10:33:44.619Z,44.10
2022-08-16T10:36:38.800Z,44.50
2022-08-16T10:39:00.767Z,47.40
2022-08-16T10:41:28.690Z,46.40
2022-08-16T10:43:56.663Z,46.50
2022-08-16T10:46:40.011Z,48.00
2022-08-16T10:49:10.984Z,1.00
2022-08-16T10:52:01.825Z,1.00
2022-08-16T10:54:29.331Z,41.40
2022-08-16T10:56:57.544Z,39.50
2022-08-16T10:59:32.659Z,43.50
2022-08-16T11:05:10.682Z,52.90
2022-08-16T11:07:55.197Z,53.90
2022-08-16T11:16:26.585Z,53.90
2022-08-16T11:19:05.906Z,54.00
2022-08-16T11:24:41.945Z,99.90
2022-08-16T11:27:21.477Z,99.90
2022-08-16T11:29:54.814Z,1.00
2022-08-16T11:32:31.025Z,1.00
2022-08-16T11:35:10.578Z,1.00
2022-08-16T11:40:37.837Z,1.00
2022-08-16T11:43:06.631Z,1.00
2022-08-16T11:45:36.754Z,1.00
2022-08-16T11:48:04.736Z,1.00
2022-08-16T11:50:35.371Z,1.00
2022-08-16T11:53:03.968Z,99.90
2022-08-16T11:55:32.141Z,1.00
2022-08-16T11:58:00.362Z,1.00
2022-08-16T12:00:42.653Z,1.00
2022-08-16T12:03:16.276Z,99.90
2022-08-16T12:05:45.401Z,1.00
2022-08-16T12:08:12.660Z,99.90
2022-08-16T12:10:43.116Z,1.00
2022-08-16T12:13:11.747Z,99.90
2022-08-16T12:15:38.791Z,99.90
2022-08-16T12:18:07.026Z,1.00
2022-08-16T12:20:40.315Z,1.00
2022-08-16T12:23:07.526Z,1.00
2022-08-16T12:25:35.631Z,99.90
2022-08-16T12:28:07.182Z,99.90
2022-08-16T12:30:39.112Z,1.00
2022-08-16T12:33:07.497Z,1.00
2022-08-16T12:35:36.885Z,40.80
2022-08-16T12:38:35.687Z,99.90
2022-08-16T12:40:53.104Z,1.00
2022-08-16T12:48:42.780Z,1.00
2022-08-16T12:53:51.684Z,1.00
2022-08-16T12:56:20.786Z,1.00
2022-08-16T12:58:51.973Z,99.90
2022-08-16T13:01:26.896Z,99.90
2022-08-16T13:04:20.404Z,99.90
2022-08-16T13:06:45.517Z,1.00
2022-08-16T13:29:57.435Z,1.00
2022-08-16T13:32:40.237Z,56.50
2022-08-16T13:35:07.976Z,56.40
2022-08-16T13:37:41.269Z,56.40
2022-08-16T13:40:09.744Z,57.10
2022-08-16T13:42:47.519Z,57.40
2022-08-16T13:45:15.991Z,57.50
2022-08-16T13:47:43.074Z,57.60
2022-08-16T13:50:11.728Z,57.00
2022-08-16T13:52:39.801Z,58.00
2022-08-16T13:55:17.487Z,58.20
2022-08-16T13:58:35.634Z,58.40
2022-08-16T14:00:31.885Z,57.60
2022-08-16T14:02:59.260Z,58.50
2022-08-16T14:05:26.644Z,58.30
2022-08-16T14:07:54.536Z,58.70
2022-08-16T14:10:21.773Z,58.20
2022-08-16T14:12:48.706Z,58.50
2022-08-16T14:15:16.208Z,60.00
2022-08-16T14:18:15.932Z,58.50
2022-08-16T14:20:30.137Z,59.00
2022-08-16T14:25:24.790Z,1.00
2022-08-16T14:30:22.783Z,1.00
2022-08-16T14:32:51.314Z,99.90
2022-08-16T14:35:22.469Z,1.00
2022-08-16T14:40:31.499Z,1.00
2022-08-16T14:42:58.645Z,1.00
2022-08-16T14:50:28.317Z,50.50
2022-08-16T14:53:09.606Z,58.30
2022-08-16T14:55:38.124Z,55.00
2022-08-16T14:58:10.431Z,59.60
2022-08-16T15:00:47.745Z,60.10
2022-08-16T15:03:18.461Z,64.60
2022-08-16T15:05:48.423Z,60.10
2022-08-16T15:08:17.727Z,60.30
2022-08-16T15:10:47.487Z,59.80
2022-08-16T15:13:15.066Z,66.20
2022-08-16T15:15:43.776Z,77.00
2022-08-16T15:18:12.162Z,82.20
2022-08-16T15:23:10.026Z,61.00
2022-08-16T15:25:47.366Z,62.90
2022-08-16T15:28:31.825Z,61.10
2022-08-16T15:31:03.980Z,61.30
2022-08-16T15:33:34.545Z,62.00
2022-08-16T15:36:03.352Z,59.50
2022-08-16T15:39:02.134Z,71.10
2022-08-16T15:41:30.876Z,73.50
2022-08-16T15:44:05.243Z,78.80
2022-08-16T15:46:56.312Z,64.60
2022-08-16T15:49:37.253Z,60.70
2022-08-16T15:52:16.288Z,60.90
2022-08-16T15:54:53.486Z,64.00
2022-08-16T15:57:27.298Z,64.10
2022-08-16T15:59:55.943Z,68.10
2022-08-16T16:02:33.464Z,61.00
2022-08-16T16:05:07.408Z,63.60
2022-08-16T16:07:39.424Z,64.20
2022-08-16T16:10:13.460Z,63.50
2022-08-16T16:12:51.429Z,62.90
2022-08-16T16:15:24.530Z,63.40
2022-08-16T16:17:52.437Z,63.90
2022-08-16T16:20:21.432Z,65.50
2022-08-16T16:22:49.911Z,70.70
2022-08-16T16:25:18.672Z,67.10
2022-08-16T16:27:46.683Z,65.00
2022-08-16T16:30:33.591Z,64.30
2022-08-16T16:33:11.492Z,65.80
2022-08-16T16:35:46.941Z,70.80
2022-08-16T16:40:54.002Z,51.90
2022-08-16T16:43:25.369Z,60.10
2022-08-16T16:45:52.998Z,62.70
2022-08-16T16:48:19.876Z,58.80
2022-08-16T16:50:47.852Z,1.00
